sensor_id;sensor_type;location;lat;lon;timestamp;pressure;altitude;pressure_sealevel;temperature;humidity
23679;BME280;12016;51.668;6.874;2022-08-04T00:01:32;101046.88;;;27.89;66.48
23679;BME280;12016;51.668;6.874;2022-08-04T00:07:55;101052.56;;;27.89;66.66
23679;BME280;12016;51.668;6.874;2022-08-04T00:14:03;101047.22;;;27.82;66.17
23679;BME280;12016;51.668;6.874;2022-08-04T00:20:08;101046.38;;;27.76;66.75
23679;BME280;12016;51.668;6.874;2022-08-04T00:26:10;101046.84;;;27.75;67.09
23679;BME280;12016;51.668;6.874;2022-08-04T00:32:13;101049.91;;;27.71;66.82
23679;BME280;12016;51.668;6.874;2022-08-04T00:38:17;101039.88;;;27.76;66.50
23679;BME280;12016;51.668;6.874;2022-08-04T00:44:35;101040.75;;;27.67;68.43
23679;BME280;12016;51.668;6.874;2022-08-04T01:10:04;101028.13;;;27.54;67.10
23679;BME280;12016;51.668;6.874;2022-08-04T01:16:09;101019.78;;;27.50;66.80
23679;BME280;12016;51.668;6.874;2022-08-04T01:22:24;101016.94;;;27.50;65.90
23679;BME280;12016;51.668;6.874;2022-08-04T01:35:03;101002.53;;;27.39;67.24
23679;BME280;12016;51.668;6.874;2022-08-04T01:41:12;100999.56;;;27.34;67.24
23679;BME280;12016;51.668;6.874;2022-08-04T01:47:16;100995.84;;;27.28;67.60
23679;BME280;12016;51.668;6.874;2022-08-04T01:53:23;100987.47;;;27.24;67.22
23679;BME280;12016;51.668;6.874;2022-08-04T01:59:30;100988.16;;;27.19;66.58
23679;BME280;12016;51.668;6.874;2022-08-04T02:05:34;100979.31;;;27.17;66.74
23679;BME280;12016;51.668;6.874;2022-08-04T02:11:39;100974.31;;;27.12;67.30
23679;BME280;12016;51.668;6.874;2022-08-04T02:23:45;100973.91;;;27.05;67.94
23679;BME280;12016;51.668;6.874;2022-08-04T02:29:58;100969.47;;;26.89;68.75
23679;BME280;12016;51.668;6.874;2022-08-04T02:36:02;100972.97;;;26.84;69.72
23679;BME280;12016;51.668;6.874;2022-08-04T02:42:05;100965.75;;;26.83;70.01
23679;BME280;12016;51.668;6.874;2022-08-04T02:48:07;100955.34;;;26.80;70.96
23679;BME280;12016;51.668;6.874;2022-08-04T02:54:10;100960.59;;;26.73;71.52
23679;BME280;12016;51.668;6.874;2022-08-04T03:00:13;100948.66;;;26.68;71.33
23679;BME280;12016;51.668;6.874;2022-08-04T03:06:43;100939.84;;;26.66;70.86
23679;BME280;12016;51.668;6.874;2022-08-04T03:12:56;100936.88;;;26.61;70.04
23679;BME280;12016;51.668;6.874;2022-08-04T03:31:42;100932.81;;;26.53;69.67
23679;BME280;12016;51.668;6.874;2022-08-04T04:35:37;100921.91;;;26.13;72.03
23679;BME280;12016;51.668;6.874;2022-08-04T04:48:41;100916.34;;;26.19;72.09
23679;BME280;12016;51.668;6.874;2022-08-04T05:14:21;100922.50;;;26.41;73.21
23679;BME280;12016;51.668;6.874;2022-08-04T05:20:41;100914.19;;;26.52;72.79
23679;BME280;12016;51.668;6.874;2022-08-04T05:26:47;100916.13;;;26.69;72.56
23679;BME280;12016;51.668;6.874;2022-08-04T05:32:57;100926.94;;;26.80;71.88
23679;BME280;12016;51.668;6.874;2022-08-04T05:39:01;100916.75;;;26.88;72.56
23679;BME280;12016;51.668;6.874;2022-08-04T05:45:05;100925.78;;;27.01;73.04
23679;BME280;12016;51.668;6.874;2022-08-04T05:51:09;100916.06;;;27.08;72.85
23679;BME280;12016;51.668;6.874;2022-08-04T05:57:12;100922.63;;;27.14;72.77
23679;BME280;12016;51.668;6.874;2022-08-04T06:03:17;100920.69;;;27.20;73.35
23679;BME280;12016;51.668;6.874;2022-08-04T06:09:20;100921.47;;;27.20;73.15
23679;BME280;12016;51.668;6.874;2022-08-04T06:15:23;100909.72;;;27.27;73.18
23679;BME280;12016;51.668;6.874;2022-08-04T06:21:27;100912.69;;;27.33;73.07
23679;BME280;12016;51.668;6.874;2022-08-04T06:27:29;100910.50;;;27.42;72.47
23679;BME280;12016;51.668;6.874;2022-08-04T06:33:32;100906.75;;;27.51;72.69
23679;BME280;12016;51.668;6.874;2022-08-04T06:39:35;100900.75;;;27.63;72.49
23679;BME280;12016;51.668;6.874;2022-08-04T06:45:38;100907.31;;;27.69;72.53
23679;BME280;12016;51.668;6.874;2022-08-04T06:51:43;100902.97;;;27.74;72.51
23679;BME280;12016;51.668;6.874;2022-08-04T06:57:49;100904.75;;;27.71;71.42
23679;BME280;12016;51.668;6.874;2022-08-04T07:03:51;100900.75;;;27.63;70.16
23679;BME280;12016;51.668;6.874;2022-08-04T07:09:53;100887.69;;;27.71;68.48
23679;BME280;12016;51.668;6.874;2022-08-04T07:15:57;100886.81;;;27.65;68.38
23679;BME280;12016;51.668;6.874;2022-08-04T07:22:01;100892.53;;;27.65;68.19
23679;BME280;12016;51.668;6.874;2022-08-04T07:28:04;100897.41;;;27.65;68.43
23679;BME280;12016;51.668;6.874;2022-08-04T07:34:06;100888.69;;;27.68;67.68
23679;BME280;12016;51.668;6.874;2022-08-04T07:40:08;100892.97;;;27.78;68.64
23679;BME280;12016;51.668;6.874;2022-08-04T07:46:11;100894.00;;;27.95;68.23
23679;BME280;12016;51.668;6.874;2022-08-04T07:52:14;100904.06;;;28.31;66.48
23679;BME280;12016;51.668;6.874;2022-08-04T07:58:16;100895.59;;;28.37;65.56
23679;BME280;12016;51.668;6.874;2022-08-04T08:04:19;100904.84;;;28.72;65.43
23679;BME280;12016;51.668;6.874;2022-08-04T08:10:22;100890.03;;;28.93;63.24
23679;BME280;12016;51.668;6.874;2022-08-04T08:16:25;100909.06;;;29.02;61.83
23679;BME280;12016;51.668;6.874;2022-08-04T08:22:29;100876.84;;;29.21;62.27
23679;BME280;12016;51.668;6.874;2022-08-04T08:28:31;100875.75;;;29.50;61.82
23679;BME280;12016;51.668;6.874;2022-08-04T08:34:34;100868.03;;;29.56;60.45
23679;BME280;12016;51.668;6.874;2022-08-04T08:40:47;100883.78;;;29.77;59.66
23679;BME280;12016;51.668;6.874;2022-08-04T09:12:45;100876.53;;;31.38;52.08
23679;BME280;12016;51.668;6.874;2022-08-04T09:25:19;100866.16;;;32.42;51.08
23679;BME280;12016;51.668;6.874;2022-08-04T09:31:29;100877.28;;;32.56;51.67
23679;BME280;12016;51.668;6.874;2022-08-04T09:37:46;100880.38;;;32.58;51.10
23679;BME280;12016;51.668;6.874;2022-08-04T09:56:19;100893.50;;;32.94;47.64
23679;BME280;12016;51.668;6.874;2022-08-04T10:02:25;100894.97;;;33.07;48.58
23679;BME280;12016;51.668;6.874;2022-08-04T10:14:52;100885.78;;;33.49;46.37
23679;BME280;12016;51.668;6.874;2022-08-04T10:27:51;100897.28;;;33.73;46.91
23679;BME280;12016;51.668;6.874;2022-08-04T10:34:13;100897.19;;;34.32;45.04
23679;BME280;12016;51.668;6.874;2022-08-04T10:40:54;100904.31;;;34.68;43.47
23679;BME280;12016;51.668;6.874;2022-08-04T10:46:58;100895.63;;;34.92;43.21
23679;BME280;12016;51.668;6.874;2022-08-04T10:53:06;100884.81;;;35.62;42.87
23679;BME280;12016;51.668;6.874;2022-08-04T10:59:17;100895.91;;;35.84;40.43
23679;BME280;12016;51.668;6.874;2022-08-04T11:05:44;100900.72;;;35.94;37.89
23679;BME280;12016;51.668;6.874;2022-08-04T11:11:55;100911.63;;;35.57;40.78
23679;BME280;12016;51.668;6.874;2022-08-04T11:18:04;100910.38;;;35.97;40.99
23679;BME280;12016;51.668;6.874;2022-08-04T11:24:16;100928.13;;;35.88;41.74
23679;BME280;12016;51.668;6.874;2022-08-04T11:30:20;100953.94;;;35.48;41.88
23679;BME280;12016;51.668;6.874;2022-08-04T11:36:40;100964.47;;;34.90;43.11
23679;BME280;12016;51.668;6.874;2022-08-04T11:43:00;100966.94;;;36.26;41.12
23679;BME280;12016;51.668;6.874;2022-08-04T11:49:22;100962.72;;;37.80;39.08
23679;BME280;12016;51.668;6.874;2022-08-04T11:55:26;100972.59;;;36.18;41.38
23679;BME280;12016;51.668;6.874;2022-08-04T12:01:59;100990.69;;;35.05;43.30
23679;BME280;12016;51.668;6.874;2022-08-04T12:20:56;101015.31;;;34.10;48.22
23679;BME280;12016;51.668;6.874;2022-08-04T12:27:06;101016.19;;;34.53;49.17
23679;BME280;12016;51.668;6.874;2022-08-04T12:33:14;101009.00;;;38.85;41.41
23679;BME280;12016;51.668;6.874;2022-08-04T12:39:22;101007.72;;;37.34;42.46
23679;BME280;12016;51.668;6.874;2022-08-04T12:45:27;100997.19;;;35.93;45.83
23679;BME280;12016;51.668;6.874;2022-08-04T12:51:36;100993.41;;;35.16;45.91
23679;BME280;12016;51.668;6.874;2022-08-04T12:57:41;100984.19;;;34.62;47.14
23679;BME280;12016;51.668;6.874;2022-08-04T13:03:48;100983.22;;;34.54;47.97
23679;BME280;12016;51.668;6.874;2022-08-04T13:09:53;100985.63;;;35.11;47.08
23679;BME280;12016;51.668;6.874;2022-08-04T13:15:59;100978.72;;;35.01;46.70
23679;BME280;12016;51.668;6.874;2022-08-04T13:22:02;100972.44;;;34.36;47.70
23679;BME280;12016;51.668;6.874;2022-08-04T13:28:11;100974.13;;;34.50;47.63
23679;BME280;12016;51.668;6.874;2022-08-04T13:34:14;100961.81;;;35.61;47.66
23679;BME280;12016;51.668;6.874;2022-08-04T13:40:21;100965.34;;;37.98;43.12
23679;BME280;12016;51.668;6.874;2022-08-04T13:46:25;100961.75;;;38.05;41.71
23679;BME280;12016;51.668;6.874;2022-08-04T13:52:29;100956.31;;;38.23;40.12
23679;BME280;12016;51.668;6.874;2022-08-04T13:58:33;100952.34;;;37.84;40.40
23679;BME280;12016;51.668;6.874;2022-08-04T14:04:39;100962.19;;;37.27;39.64
23679;BME280;12016;51.668;6.874;2022-08-04T14:10:52;100968.34;;;37.44;38.50
23679;BME280;12016;51.668;6.874;2022-08-04T14:17:09;100955.34;;;38.56;37.14
23679;BME280;12016;51.668;6.874;2022-08-04T14:23:13;100962.81;;;38.72;37.88
23679;BME280;12016;51.668;6.874;2022-08-04T14:29:16;100961.19;;;37.66;40.14
23679;BME280;12016;51.668;6.874;2022-08-04T14:35:18;100967.75;;;37.25;39.88
23679;BME280;12016;51.668;6.874;2022-08-04T14:41:27;100951.97;;;36.53;40.76
23679;BME280;12016;51.668;6.874;2022-08-04T14:47:39;100959.00;;;37.05;41.31
23679;BME280;12016;51.668;6.874;2022-08-04T14:53:46;100956.88;;;36.45;41.53
23679;BME280;12016;51.668;6.874;2022-08-04T14:59:48;100961.47;;;35.33;42.14
23679;BME280;12016;51.668;6.874;2022-08-04T15:05:51;100960.84;;;34.84;41.98
23679;BME280;12016;51.668;6.874;2022-08-04T15:11:53;100945.69;;;34.65;42.57
23679;BME280;12016;51.668;6.874;2022-08-04T15:17:55;100958.72;;;34.23;43.72
23679;BME280;12016;51.668;6.874;2022-08-04T15:23:58;100955.13;;;33.88;45.33
23679;BME280;12016;51.668;6.874;2022-08-04T15:30:05;100981.88;;;33.48;47.02
23679;BME280;12016;51.668;6.874;2022-08-04T15:36:12;100975.84;;;33.51;47.59
23679;BME280;12016;51.668;6.874;2022-08-04T15:42:22;100986.03;;;33.52;48.73
23679;BME280;12016;51.668;6.874;2022-08-04T15:48:37;100995.50;;;33.36;49.64
23679;BME280;12016;51.668;6.874;2022-08-04T15:54:39;100991.41;;;33.21;51.25
23679;BME280;12016;51.668;6.874;2022-08-04T16:06:50;100996.91;;;32.67;52.71
23679;BME280;12016;51.668;6.874;2022-08-04T16:13:11;100995.94;;;32.48;53.55
23679;BME280;12016;51.668;6.874;2022-08-04T16:19:19;101002.78;;;32.96;53.28
23679;BME280;12016;51.668;6.874;2022-08-04T16:25:41;101003.41;;;32.67;54.15
23679;BME280;12016;51.668;6.874;2022-08-04T16:38:11;101000.66;;;32.29;53.88
23679;BME280;12016;51.668;6.874;2022-08-04T16:44:39;100992.84;;;32.24;53.39
23679;BME280;12016;51.668;6.874;2022-08-04T16:51:08;100978.56;;;31.96;54.49
23679;BME280;12016;51.668;6.874;2022-08-04T16:57:10;100976.94;;;32.28;53.76
23679;BME280;12016;51.668;6.874;2022-08-04T17:03:12;100958.66;;;32.53;53.44
23679;BME280;12016;51.668;6.874;2022-08-04T17:09:16;100964.88;;;32.52;53.88
23679;BME280;12016;51.668;6.874;2022-08-04T17:15:19;100970.94;;;32.26;55.01
23679;BME280;12016;51.668;6.874;2022-08-04T17:21:31;100969.66;;;32.27;55.40
23679;BME280;12016;51.668;6.874;2022-08-04T17:27:33;100981.34;;;32.29;55.56
23679;BME280;12016;51.668;6.874;2022-08-04T17:33:42;100979.56;;;32.15;56.68
23679;BME280;12016;51.668;6.874;2022-08-04T17:39:44;100968.59;;;32.41;56.74
23679;BME280;12016;51.668;6.874;2022-08-04T17:46:12;100982.63;;;32.50;57.43
23679;BME280;12016;51.668;6.874;2022-08-04T17:52:20;100987.13;;;32.18;56.46
23679;BME280;12016;51.668;6.874;2022-08-04T17:58:38;101008.75;;;32.14;56.00
23679;BME280;12016;51.668;6.874;2022-08-04T18:10:46;101012.41;;;31.75;57.36
23679;BME280;12016;51.668;6.874;2022-08-04T18:16:49;101005.91;;;31.58;57.69
23679;BME280;12016;51.668;6.874;2022-08-04T18:22:51;101008.50;;;31.56;57.92
23679;BME280;12016;51.668;6.874;2022-08-04T18:28:53;101009.28;;;31.57;58.34
23679;BME280;12016;51.668;6.874;2022-08-04T18:34:55;101022.28;;;31.58;58.58
23679;BME280;12016;51.668;6.874;2022-08-04T18:40:57;101033.19;;;31.54;58.19
23679;BME280;12016;51.668;6.874;2022-08-04T18:47:01;101029.56;;;31.42;59.06
23679;BME280;12016;51.668;6.874;2022-08-04T18:53:03;101025.56;;;31.23;59.81
23679;BME280;12016;51.668;6.874;2022-08-04T18:59:05;101025.00;;;31.08;60.07
23679;BME280;12016;51.668;6.874;2022-08-04T19:05:07;101026.81;;;30.95;60.43
23679;BME280;12016;51.668;6.874;2022-08-04T19:11:10;101044.94;;;30.81;61.03
23679;BME280;12016;51.668;6.874;2022-08-04T19:17:12;101044.84;;;30.70;61.42
23679;BME280;12016;51.668;6.874;2022-08-04T19:23:15;101052.56;;;30.52;61.89
23679;BME280;12016;51.668;6.874;2022-08-04T19:29:17;101055.84;;;30.34;62.82
23679;BME280;12016;51.668;6.874;2022-08-04T19:35:19;101061.44;;;30.23;63.11
23679;BME280;12016;51.668;6.874;2022-08-04T19:41:21;101068.16;;;30.20;62.24
23679;BME280;12016;51.668;6.874;2022-08-04T19:47:23;101078.69;;;30.03;62.30
23679;BME280;12016;51.668;6.874;2022-08-04T19:53:25;101083.75;;;29.88;61.16
23679;BME280;12016;51.668;6.874;2022-08-04T19:59:28;101084.88;;;29.71;61.64
23679;BME280;12016;51.668;6.874;2022-08-04T20:05:30;101084.38;;;29.27;60.19
23679;BME280;12016;51.668;6.874;2022-08-04T20:11:32;101088.88;;;29.13;58.45
23679;BME280;12016;51.668;6.874;2022-08-04T20:17:34;101102.25;;;28.87;57.28
23679;BME280;12016;51.668;6.874;2022-08-04T20:23:37;101106.66;;;28.68;56.49
23679;BME280;12016;51.668;6.874;2022-08-04T20:29:39;101127.13;;;28.52;56.32
23679;BME280;12016;51.668;6.874;2022-08-04T20:35:41;101126.16;;;28.55;55.81
23679;BME280;12016;51.668;6.874;2022-08-04T20:41:43;101136.16;;;28.36;56.85
23679;BME280;12016;51.668;6.874;2022-08-04T20:47:45;101133.81;;;28.34;56.55
23679;BME280;12016;51.668;6.874;2022-08-04T20:53:46;101154.66;;;28.26;57.00
23679;BME280;12016;51.668;6.874;2022-08-04T20:59:48;101159.94;;;28.18;57.21
23679;BME280;12016;51.668;6.874;2022-08-04T21:05:49;101164.28;;;28.14;57.35
23679;BME280;12016;51.668;6.874;2022-08-04T21:11:53;101172.03;;;27.98;57.78
23679;BME280;12016;51.668;6.874;2022-08-04T21:17:57;101187.19;;;27.81;58.84
23679;BME280;12016;51.668;6.874;2022-08-04T21:24:02;101196.78;;;27.69;59.79
23679;BME280;12016;51.668;6.874;2022-08-04T21:30:04;101227.19;;;27.63;59.63
23679;BME280;12016;51.668;6.874;2022-08-04T21:36:07;101236.44;;;27.72;59.56
23679;BME280;12016;51.668;6.874;2022-08-04T21:42:09;101251.34;;;27.67;60.08
23679;BME280;12016;51.668;6.874;2022-08-04T21:48:22;101256.22;;;27.52;60.53
23679;BME280;12016;51.668;6.874;2022-08-04T21:54:26;101243.72;;;27.50;60.17
23679;BME280;12016;51.668;6.874;2022-08-04T22:00:28;101241.38;;;27.48;60.11
23679;BME280;12016;51.668;6.874;2022-08-04T22:06:29;101259.84;;;27.20;60.83
23679;BME280;12016;51.668;6.874;2022-08-04T22:12:31;101285.44;;;27.20;61.20
23679;BME280;12016;51.668;6.874;2022-08-04T22:18:35;101382.81;;;27.06;62.67
23679;BME280;12016;51.668;6.874;2022-08-04T22:24:37;101365.81;;;25.40;85.27
23679;BME280;12016;51.668;6.874;2022-08-04T22:30:39;101362.50;;;24.37;94.81
23679;BME280;12016;51.668;6.874;2022-08-04T22:36:41;101379.75;;;24.52;95.51
23679;BME280;12016;51.668;6.874;2022-08-04T22:42:43;101323.97;;;24.61;96.23
23679;BME280;12016;51.668;6.874;2022-08-04T22:48:45;101270.75;;;24.78;93.55
23679;BME280;12016;51.668;6.874;2022-08-04T22:54:48;101248.56;;;24.76;94.65
23679;BME280;12016;51.668;6.874;2022-08-04T23:00:50;101180.34;;;24.62;93.80
23679;BME280;12016;51.668;6.874;2022-08-04T23:06:51;101139.50;;;24.41;93.73
23679;BME280;12016;51.668;6.874;2022-08-04T23:12:55;101150.00;;;24.32;94.10
23679;BME280;12016;51.668;6.874;2022-08-04T23:18:57;101165.81;;;24.20;95.18
23679;BME280;12016;51.668;6.874;2022-08-04T23:24:59;101164.94;;;24.32;95.41
23679;BME280;12016;51.668;6.874;2022-08-04T23:31:00;101182.06;;;24.29;92.10
23679;BME280;12016;51.668;6.874;2022-08-04T23:37:02;101179.59;;;24.40;92.42
23679;BME280;12016;51.668;6.874;2022-08-04T23:43:04;101165.31;;;24.52;90.63
23679;BME280;12016;51.668;6.874;2022-08-04T23:49:08;101154.03;;;24.61;90.86
23679;BME280;12016;51.668;6.874;2022-08-04T23:55:09;101146.97;;;24.66;90.49
